sensor_id;sensor_type;location;lat;lon;timestamp;temperature;humidity
25170;DHT22;13129;48.012;10.352;2022-11-20T04:30:44;4.20;99.90
25170;DHT22;13129;48.012;10.352;2022-11-20T04:33:09;4.20;99.90
25170;DHT22;13129;48.012;10.352;2022-11-20T04:35:36;4.10;99.90
25170;DHT22;13129;48.012;10.352;2022-11-20T04:38:02;4.10;99.90
25170;DHT22;13129;48.012;10.352;2022-11-20T04:40:28;4.10;99.90
25170;DHT22;13129;48.012;10.352;2022-11-20T04:42:54;4.10;99.90
25170;DHT22;13129;48.012;10.352;2022-11-20T04:45:20;4.10;99.90
25170;DHT22;13129;48.012;10.352;2022-11-20T04:47:46;4.00;99.90
25170;DHT22;13129;48.012;10.352;2022-11-20T04:50:12;4.00;99.90
25170;DHT22;13129;48.012;10.352;2022-11-20T04:52:37;4.00;99.90
25170;DHT22;13129;48.012;10.352;2022-11-20T04:55:03;4.00;99.90
25170;DHT22;13129;48.012;10.352;2022-11-20T04:57:29;4.00;99.90
25170;DHT22;13129;48.012;10.352;2022-11-20T04:59:55;3.90;99.90
25170;DHT22;13129;48.012;10.352;2022-11-20T05:02:20;4.00;99.90
25170;DHT22;13129;48.012;10.352;2022-11-20T05:04:46;4.00;99.90
25170;DHT22;13129;48.012;10.352;2022-11-20T05:07:12;3.90;99.90
25170;DHT22;13129;48.012;10.352;2022-11-20T05:09:37;3.80;99.90
25170;DHT22;13129;48.012;10.352;2022-11-20T05:12:03;3.80;99.90
25170;DHT22;13129;48.012;10.352;2022-11-20T05:14:29;3.80;99.90
25170;DHT22;13129;48.012;10.352;2022-11-20T05:16:54;3.80;99.90
25170;DHT22;13129;48.012;10.352;2022-11-20T05:19:20;3.80;99.90
25170;DHT22;13129;48.012;10.352;2022-11-20T05:21:46;3.80;99.90
25170;DHT22;13129;48.012;10.352;2022-11-20T05:24:11;3.90;99.90
25170;DHT22;13129;48.012;10.352;2022-11-20T05:26:40;3.90;99.90
25170;DHT22;13129;48.012;10.352;2022-11-20T05:29:05;3.80;99.90
25170;DHT22;13129;48.012;10.352;2022-11-20T05:31:31;3.80;99.90
25170;DHT22;13129;48.012;10.352;2022-11-20T05:33:57;3.80;99.90
25170;DHT22;13129;48.012;10.352;2022-11-20T05:36:23;3.80;99.90
25170;DHT22;13129;48.012;10.352;2022-11-20T05:38:49;3.80;99.90
25170;DHT22;13129;48.012;10.352;2022-11-20T05:41:16;3.80;99.90
25170;DHT22;13129;48.012;10.352;2022-11-20T05:43:43;3.80;99.90
25170;DHT22;13129;48.012;10.352;2022-11-20T05:46:11;3.80;99.90
25170;DHT22;13129;48.012;10.352;2022-11-20T05:48:38;3.80;99.90
25170;DHT22;13129;48.012;10.352;2022-11-20T05:51:06;3.80;99.90
25170;DHT22;13129;48.012;10.352;2022-11-20T05:53:34;3.90;99.90
25170;DHT22;13129;48.012;10.352;2022-11-20T05:56:05;3.90;99.90
25170;DHT22;13129;48.012;10.352;2022-11-20T05:58:31;3.90;99.90
25170;DHT22;13129;48.012;10.352;2022-11-20T06:01:07;4.00;99.90
25170;DHT22;13129;48.012;10.352;2022-11-20T06:03:33;4.00;99.90
25170;DHT22;13129;48.012;10.352;2022-11-20T06:06:01;4.00;99.90
25170;DHT22;13129;48.012;10.352;2022-11-20T06:08:28;4.00;99.90
25170;DHT22;13129;48.012;10.352;2022-11-20T06:10:53;4.00;99.90
25170;DHT22;13129;48.012;10.352;2022-11-20T06:13:19;4.00;99.90
25170;DHT22;13129;48.012;10.352;2022-11-20T06:15:49;4.00;99.90
25170;DHT22;13129;48.012;10.352;2022-11-20T06:18:15;4.00;99.90
25170;DHT22;13129;48.012;10.352;2022-11-20T06:20:41;4.00;99.90
25170;DHT22;13129;48.012;10.352;2022-11-20T06:23:07;4.10;99.90
25170;DHT22;13129;48.012;10.352;2022-11-20T06:25:32;4.10;99.90
25170;DHT22;13129;48.012;10.352;2022-11-20T06:27:58;4.00;99.90
25170;DHT22;13129;48.012;10.352;2022-11-20T06:30:23;4.00;99.90
25170;DHT22;13129;48.012;10.352;2022-11-20T06:32:49;4.00;99.90
25170;DHT22;13129;48.012;10.352;2022-11-20T06:35:15;4.00;99.90
25170;DHT22;13129;48.012;10.352;2022-11-20T06:37:40;4.00;99.90
25170;DHT22;13129;48.012;10.352;2022-11-20T06:40:06;4.10;99.90
25170;DHT22;13129;48.012;10.352;2022-11-20T06:42:32;4.10;99.90
25170;DHT22;13129;48.012;10.352;2022-11-20T06:44:58;4.10;99.90
25170;DHT22;13129;48.012;10.352;2022-11-20T06:47:23;4.10;99.90
25170;DHT22;13129;48.012;10.352;2022-11-20T06:49:49;4.10;99.90
25170;DHT22;13129;48.012;10.352;2022-11-20T06:52:15;4.10;99.90
25170;DHT22;13129;48.012;10.352;2022-11-20T06:54:40;4.10;99.90
25170;DHT22;13129;48.012;10.352;2022-11-20T06:57:06;4.10;99.90
25170;DHT22;13129;48.012;10.352;2022-11-20T06:59:32;4.20;99.90
25170;DHT22;13129;48.012;10.352;2022-11-20T07:01:57;4.20;99.90
25170;DHT22;13129;48.012;10.352;2022-11-20T07:04:23;4.20;99.90
25170;DHT22;13129;48.012;10.352;2022-11-20T07:06:49;4.20;99.90
25170;DHT22;13129;48.012;10.352;2022-11-20T07:09:14;4.20;99.90
25170;DHT22;13129;48.012;10.352;2022-11-20T07:11:40;4.20;99.90
25170;DHT22;13129;48.012;10.352;2022-11-20T07:14:06;4.30;99.90
25170;DHT22;13129;48.012;10.352;2022-11-20T07:16:31;4.30;99.90
25170;DHT22;13129;48.012;10.352;2022-11-20T07:18:57;4.30;99.90
25170;DHT22;13129;48.012;10.352;2022-11-20T07:21:23;4.40;99.90
25170;DHT22;13129;48.012;10.352;2022-11-20T07:23:48;4.40;99.90
25170;DHT22;13129;48.012;10.352;2022-11-20T07:26:14;4.50;99.90
25170;DHT22;13129;48.012;10.352;2022-11-20T07:28:43;4.50;99.90
25170;DHT22;13129;48.012;10.352;2022-11-20T07:31:09;4.60;99.90
25170;DHT22;13129;48.012;10.352;2022-11-20T07:33:34;4.60;99.90
25170;DHT22;13129;48.012;10.352;2022-11-20T07:36:00;4.80;99.90
25170;DHT22;13129;48.012;10.352;2022-11-20T07:38:26;5.00;99.90
25170;DHT22;13129;48.012;10.352;2022-11-20T07:40:56;5.10;99.90
25170;DHT22;13129;48.012;10.352;2022-11-20T07:43:23;5.20;99.90
25170;DHT22;13129;48.012;10.352;2022-11-20T07:45:49;5.30;99.90
25170;DHT22;13129;48.012;10.352;2022-11-20T07:48:15;5.20;99.90
25170;DHT22;13129;48.012;10.352;2022-11-20T07:50:40;5.20;99.90
25170;DHT22;13129;48.012;10.352;2022-11-20T07:53:06;5.30;99.90
25170;DHT22;13129;48.012;10.352;2022-11-20T07:55:33;5.30;99.90
25170;DHT22;13129;48.012;10.352;2022-11-20T07:57:59;5.30;99.90
25170;DHT22;13129;48.012;10.352;2022-11-20T08:00:26;5.30;99.90
25170;DHT22;13129;48.012;10.352;2022-11-20T08:02:51;5.20;99.90
25170;DHT22;13129;48.012;10.352;2022-11-20T08:05:17;5.30;99.90
25170;DHT22;13129;48.012;10.352;2022-11-20T08:07:44;5.30;99.90
25170;DHT22;13129;48.012;10.352;2022-11-20T08:10:12;5.30;99.90
25170;DHT22;13129;48.012;10.352;2022-11-20T08:13:04;5.40;99.90
25170;DHT22;13129;48.012;10.352;2022-11-20T08:15:50;5.60;99.90
25170;DHT22;13129;48.012;10.352;2022-11-20T08:18:16;5.60;99.90
25170;DHT22;13129;48.012;10.352;2022-11-20T08:20:43;5.60;99.90
25170;DHT22;13129;48.012;10.352;2022-11-20T08:23:09;5.60;99.90
25170;DHT22;13129;48.012;10.352;2022-11-20T08:25:36;5.70;99.90
25170;DHT22;13129;48.012;10.352;2022-11-20T08:28:05;5.70;99.90
25170;DHT22;13129;48.012;10.352;2022-11-20T08:30:31;5.80;99.90
25170;DHT22;13129;48.012;10.352;2022-11-20T08:33:01;6.10;99.90
25170;DHT22;13129;48.012;10.352;2022-11-20T08:35:27;6.40;99.90
25170;DHT22;13129;48.012;10.352;2022-11-20T08:37:53;6.70;99.90
25170;DHT22;13129;48.012;10.352;2022-11-20T08:40:19;7.10;99.90
25170;DHT22;13129;48.012;10.352;2022-11-20T08:42:49;7.20;99.90
25170;DHT22;13129;48.012;10.352;2022-11-20T08:45:15;7.40;99.90
25170;DHT22;13129;48.012;10.352;2022-11-20T08:47:42;7.60;99.90
25170;DHT22;13129;48.012;10.352;2022-11-20T08:50:12;7.80;99.90
25170;DHT22;13129;48.012;10.352;2022-11-20T08:52:39;7.90;99.90
25170;DHT22;13129;48.012;10.352;2022-11-20T08:55:05;8.00;99.90
25170;DHT22;13129;48.012;10.352;2022-11-20T08:57:32;8.10;99.90
25170;DHT22;13129;48.012;10.352;2022-11-20T08:59:58;8.60;99.90
25170;DHT22;13129;48.012;10.352;2022-11-20T09:02:24;8.80;99.90
25170;DHT22;13129;48.012;10.352;2022-11-20T09:04:50;8.80;99.90
25170;DHT22;13129;48.012;10.352;2022-11-20T09:07:16;8.80;99.90
25170;DHT22;13129;48.012;10.352;2022-11-20T09:09:41;8.50;99.90
25170;DHT22;13129;48.012;10.352;2022-11-20T09:12:14;8.20;99.90
25170;DHT22;13129;48.012;10.352;2022-11-20T09:14:40;8.10;99.90
25170;DHT22;13129;48.012;10.352;2022-11-20T09:17:06;8.50;99.90
25170;DHT22;13129;48.012;10.352;2022-11-20T09:19:33;8.80;99.90
25170;DHT22;13129;48.012;10.352;2022-11-20T09:21:59;8.90;99.90
25170;DHT22;13129;48.012;10.352;2022-11-20T09:24:26;8.80;99.90
25170;DHT22;13129;48.012;10.352;2022-11-20T09:26:52;8.40;99.90
25170;DHT22;13129;48.012;10.352;2022-11-20T09:29:17;8.20;99.90
25170;DHT22;13129;48.012;10.352;2022-11-20T09:31:44;8.10;99.90
25170;DHT22;13129;48.012;10.352;2022-11-20T09:34:09;8.20;99.90
25170;DHT22;13129;48.012;10.352;2022-11-20T09:36:35;8.50;99.90
25170;DHT22;13129;48.012;10.352;2022-11-20T09:39:01;8.60;99.90
25170;DHT22;13129;48.012;10.352;2022-11-20T09:41:55;8.80;99.90
25170;DHT22;13129;48.012;10.352;2022-11-20T09:50:52;8.80;99.90
25170;DHT22;13129;48.012;10.352;2022-11-20T09:56:42;7.90;99.90
25170;DHT22;13129;48.012;10.352;2022-11-20T09:59:21;7.60;99.90
25170;DHT22;13129;48.012;10.352;2022-11-20T10:01:49;7.40;99.90
25170;DHT22;13129;48.012;10.352;2022-11-20T10:04:17;7.30;99.90
25170;DHT22;13129;48.012;10.352;2022-11-20T10:09:55;7.10;99.90
25170;DHT22;13129;48.012;10.352;2022-11-20T10:27:03;11.00;99.90
25170;DHT22;13129;48.012;10.352;2022-11-20T10:29:35;11.20;99.90
25170;DHT22;13129;48.012;10.352;2022-11-20T10:32:08;10.80;99.90
25170;DHT22;13129;48.012;10.352;2022-11-20T10:35:00;10.10;99.90
25170;DHT22;13129;48.012;10.352;2022-11-20T10:37:28;9.60;99.90
25170;DHT22;13129;48.012;10.352;2022-11-20T10:40:05;9.20;99.90
25170;DHT22;13129;48.012;10.352;2022-11-20T10:48:10;9.30;99.90
25170;DHT22;13129;48.012;10.352;2022-11-20T10:50:40;9.60;99.90
25170;DHT22;13129;48.012;10.352;2022-11-20T10:53:16;9.70;99.90
25170;DHT22;13129;48.012;10.352;2022-11-20T10:55:57;9.40;99.90
25170;DHT22;13129;48.012;10.352;2022-11-20T11:14:57;6.70;99.90
25170;DHT22;13129;48.012;10.352;2022-11-20T11:30:43;6.00;99.90
25170;DHT22;13129;48.012;10.352;2022-11-20T11:33:11;6.00;99.90
25170;DHT22;13129;48.012;10.352;2022-11-20T11:35:51;5.90;99.90
25170;DHT22;13129;48.012;10.352;2022-11-20T11:41:01;5.90;99.90
25170;DHT22;13129;48.012;10.352;2022-11-20T11:43:33;6.00;99.90
25170;DHT22;13129;48.012;10.352;2022-11-20T11:46:32;6.00;99.90
25170;DHT22;13129;48.012;10.352;2022-11-20T11:54:22;6.00;99.90
25170;DHT22;13129;48.012;10.352;2022-11-20T11:56:49;5.90;99.90
25170;DHT22;13129;48.012;10.352;2022-11-20T11:59:24;5.90;99.90
25170;DHT22;13129;48.012;10.352;2022-11-20T12:01:59;6.00;99.90
25170;DHT22;13129;48.012;10.352;2022-11-20T12:04:44;6.00;99.90
25170;DHT22;13129;48.012;10.352;2022-11-20T12:07:41;6.00;99.90
25170;DHT22;13129;48.012;10.352;2022-11-20T12:10:34;6.00;99.90
25170;DHT22;13129;48.012;10.352;2022-11-20T12:13:55;6.00;99.90
25170;DHT22;13129;48.012;10.352;2022-11-20T12:16:23;6.10;99.90
25170;DHT22;13129;48.012;10.352;2022-11-20T12:18:51;6.20;99.90
25170;DHT22;13129;48.012;10.352;2022-11-20T12:34:51;6.30;99.90
25170;DHT22;13129;48.012;10.352;2022-11-20T12:39:55;6.20;99.90
25170;DHT22;13129;48.012;10.352;2022-11-20T12:42:46;6.10;99.90
25170;DHT22;13129;48.012;10.352;2022-11-20T12:45:58;6.00;99.90
25170;DHT22;13129;48.012;10.352;2022-11-20T12:48:47;6.00;99.90
25170;DHT22;13129;48.012;10.352;2022-11-20T12:56:56;6.10;99.90
25170;DHT22;13129;48.012;10.352;2022-11-20T13:07:53;5.80;99.90
25170;DHT22;13129;48.012;10.352;2022-11-20T13:10:33;5.80;99.90
25170;DHT22;13129;48.012;10.352;2022-11-20T13:13:42;5.80;99.90
25170;DHT22;13129;48.012;10.352;2022-11-20T13:16:23;5.80;99.90
25170;DHT22;13129;48.012;10.352;2022-11-20T13:18:52;5.80;99.90
25170;DHT22;13129;48.012;10.352;2022-11-20T13:21:21;5.80;99.90
25170;DHT22;13129;48.012;10.352;2022-11-20T13:23:48;5.90;99.90
25170;DHT22;13129;48.012;10.352;2022-11-20T13:26:20;5.90;99.90
25170;DHT22;13129;48.012;10.352;2022-11-20T13:28:48;5.90;99.90
25170;DHT22;13129;48.012;10.352;2022-11-20T13:31:30;5.90;99.90
25170;DHT22;13129;48.012;10.352;2022-11-20T13:34:02;5.90;99.90
25170;DHT22;13129;48.012;10.352;2022-11-20T13:36:30;6.00;99.90
25170;DHT22;13129;48.012;10.352;2022-11-20T13:38:59;6.00;99.90
25170;DHT22;13129;48.012;10.352;2022-11-20T13:41:34;6.00;99.90
25170;DHT22;13129;48.012;10.352;2022-11-20T13:46:51;6.00;99.90
25170;DHT22;13129;48.012;10.352;2022-11-20T13:49:26;6.00;99.90
25170;DHT22;13129;48.012;10.352;2022-11-20T13:52:34;6.10;99.90
25170;DHT22;13129;48.012;10.352;2022-11-20T13:58:04;6.20;99.90
25170;DHT22;13129;48.012;10.352;2022-11-20T14:00:33;6.30;99.90
25170;DHT22;13129;48.012;10.352;2022-11-20T14:03:18;6.30;99.90
25170;DHT22;13129;48.012;10.352;2022-11-20T14:05:59;6.40;99.90
25170;DHT22;13129;48.012;10.352;2022-11-20T14:08:35;6.40;99.90
25170;DHT22;13129;48.012;10.352;2022-11-20T14:11:12;6.30;99.90
25170;DHT22;13129;48.012;10.352;2022-11-20T14:13:39;6.30;99.90
25170;DHT22;13129;48.012;10.352;2022-11-20T14:16:04;6.30;99.90
25170;DHT22;13129;48.012;10.352;2022-11-20T14:18:30;6.30;99.90
25170;DHT22;13129;48.012;10.352;2022-11-20T14:20:56;6.40;99.90
25170;DHT22;13129;48.012;10.352;2022-11-20T14:23:27;6.40;99.90
25170;DHT22;13129;48.012;10.352;2022-11-20T14:25:53;6.40;99.90
25170;DHT22;13129;48.012;10.352;2022-11-20T14:28:25;6.40;99.90
25170;DHT22;13129;48.012;10.352;2022-11-20T14:30:52;6.30;99.90
25170;DHT22;13129;48.012;10.352;2022-11-20T14:33:18;6.30;99.90
25170;DHT22;13129;48.012;10.352;2022-11-20T14:35:50;6.20;99.90
25170;DHT22;13129;48.012;10.352;2022-11-20T14:38:35;6.10;99.90
25170;DHT22;13129;48.012;10.352;2022-11-20T14:41:09;6.10;99.90
25170;DHT22;13129;48.012;10.352;2022-11-20T14:43:56;6.00;99.90
25170;DHT22;13129;48.012;10.352;2022-11-20T14:46:23;5.90;99.90
25170;DHT22;13129;48.012;10.352;2022-11-20T14:48:55;5.80;99.90
25170;DHT22;13129;48.012;10.352;2022-11-20T14:51:39;5.70;99.90
25170;DHT22;13129;48.012;10.352;2022-11-20T14:54:16;5.60;99.90
25170;DHT22;13129;48.012;10.352;2022-11-20T14:56:45;5.50;99.90
25170;DHT22;13129;48.012;10.352;2022-11-20T14:59:26;5.40;99.90
25170;DHT22;13129;48.012;10.352;2022-11-20T15:02:16;5.30;99.90
25170;DHT22;13129;48.012;10.352;2022-11-20T15:04:50;5.20;99.90
25170;DHT22;13129;48.012;10.352;2022-11-20T15:07:27;5.10;99.90
25170;DHT22;13129;48.012;10.352;2022-11-20T15:10:05;5.10;99.90
25170;DHT22;13129;48.012;10.352;2022-11-20T15:12:36;5.10;99.90
25170;DHT22;13129;48.012;10.352;2022-11-20T15:15:03;5.20;99.90
25170;DHT22;13129;48.012;10.352;2022-11-20T15:17:40;5.20;99.90
25170;DHT22;13129;48.012;10.352;2022-11-20T15:20:14;5.20;99.90
25170;DHT22;13129;48.012;10.352;2022-11-20T15:22:40;5.30;99.90
25170;DHT22;13129;48.012;10.352;2022-11-20T15:25:17;5.30;99.90
25170;DHT22;13129;48.012;10.352;2022-11-20T15:28:01;5.30;99.90
25170;DHT22;13129;48.012;10.352;2022-11-20T15:30:27;5.30;99.90
25170;DHT22;13129;48.012;10.352;2022-11-20T15:32:53;5.30;99.90
25170;DHT22;13129;48.012;10.352;2022-11-20T15:35:18;5.20;99.90
25170;DHT22;13129;48.012;10.352;2022-11-20T15:37:44;5.20;99.90
25170;DHT22;13129;48.012;10.352;2022-11-20T15:40:10;5.20;99.90
25170;DHT22;13129;48.012;10.352;2022-11-20T15:42:36;5.10;99.90
25170;DHT22;13129;48.012;10.352;2022-11-20T15:45:02;5.00;99.90
25170;DHT22;13129;48.012;10.352;2022-11-20T15:47:34;4.90;99.90
25170;DHT22;13129;48.012;10.352;2022-11-20T15:50:00;4.80;99.90
25170;DHT22;13129;48.012;10.352;2022-11-20T15:52:26;4.60;99.90
25170;DHT22;13129;48.012;10.352;2022-11-20T15:54:52;4.50;99.90
25170;DHT22;13129;48.012;10.352;2022-11-20T15:57:36;4.40;99.90
25170;DHT22;13129;48.012;10.352;2022-11-20T16:00:02;4.20;99.90
25170;DHT22;13129;48.012;10.352;2022-11-20T16:02:28;4.20;99.90
25170;DHT22;13129;48.012;10.352;2022-11-20T16:04:54;4.10;99.90
25170;DHT22;13129;48.012;10.352;2022-11-20T16:07:19;4.10;99.90
25170;DHT22;13129;48.012;10.352;2022-11-20T16:09:45;3.90;99.90
25170;DHT22;13129;48.012;10.352;2022-11-20T16:12:11;3.90;99.90
25170;DHT22;13129;48.012;10.352;2022-11-20T16:14:56;3.80;99.90
25170;DHT22;13129;48.012;10.352;2022-11-20T16:17:40;3.70;99.90
25170;DHT22;13129;48.012;10.352;2022-11-20T16:20:11;3.70;99.90
25170;DHT22;13129;48.012;10.352;2022-11-20T16:22:37;3.60;99.90
25170;DHT22;13129;48.012;10.352;2022-11-20T16:25:03;3.60;99.90
25170;DHT22;13129;48.012;10.352;2022-11-20T16:27:29;3.40;99.90
25170;DHT22;13129;48.012;10.352;2022-11-20T16:29:55;3.40;99.90
25170;DHT22;13129;48.012;10.352;2022-11-20T16:32:20;3.40;99.90
25170;DHT22;13129;48.012;10.352;2022-11-20T16:34:46;3.40;99.90
25170;DHT22;13129;48.012;10.352;2022-11-20T16:37:11;3.40;99.90
25170;DHT22;13129;48.012;10.352;2022-11-20T16:39:37;3.40;99.90
25170;DHT22;13129;48.012;10.352;2022-11-20T16:42:03;3.40;99.90
25170;DHT22;13129;48.012;10.352;2022-11-20T16:44:30;3.50;99.90
25170;DHT22;13129;48.012;10.352;2022-11-20T16:46:56;3.50;99.90
25170;DHT22;13129;48.012;10.352;2022-11-20T16:49:21;3.50;99.90
25170;DHT22;13129;48.012;10.352;2022-11-20T16:51:47;3.60;99.90
25170;DHT22;13129;48.012;10.352;2022-11-20T16:54:13;3.60;99.90
25170;DHT22;13129;48.012;10.352;2022-11-20T16:56:39;3.80;99.90
25170;DHT22;13129;48.012;10.352;2022-11-20T16:59:04;3.80;99.90
25170;DHT22;13129;48.012;10.352;2022-11-20T17:01:31;3.80;99.90
25170;DHT22;13129;48.012;10.352;2022-11-20T17:04:03;3.80;99.90
25170;DHT22;13129;48.012;10.352;2022-11-20T17:06:34;3.80;99.90
25170;DHT22;13129;48.012;10.352;2022-11-20T17:09:00;3.80;99.90
25170;DHT22;13129;48.012;10.352;2022-11-20T17:11:26;3.80;99.90
25170;DHT22;13129;48.012;10.352;2022-11-20T17:13:54;3.80;99.90
25170;DHT22;13129;48.012;10.352;2022-11-20T17:16:22;3.80;99.90
25170;DHT22;13129;48.012;10.352;2022-11-20T17:18:48;3.80;99.90
25170;DHT22;13129;48.012;10.352;2022-11-20T17:21:18;3.80;99.90
25170;DHT22;13129;48.012;10.352;2022-11-20T17:23:44;3.80;99.90
25170;DHT22;13129;48.012;10.352;2022-11-20T17:26:13;3.70;99.90
25170;DHT22;13129;48.012;10.352;2022-11-20T17:28:40;3.70;99.90
25170;DHT22;13129;48.012;10.352;2022-11-20T17:31:12;3.70;99.90
25170;DHT22;13129;48.012;10.352;2022-11-20T17:33:39;3.70;99.90
25170;DHT22;13129;48.012;10.352;2022-11-20T17:36:07;3.70;99.90
25170;DHT22;13129;48.012;10.352;2022-11-20T17:38:33;3.80;99.90
25170;DHT22;13129;48.012;10.352;2022-11-20T17:41:03;3.70;99.90
25170;DHT22;13129;48.012;10.352;2022-11-20T17:43:30;3.70;99.90
25170;DHT22;13129;48.012;10.352;2022-11-20T17:45:56;3.70;99.90
25170;DHT22;13129;48.012;10.352;2022-11-20T17:48:21;3.70;99.90
25170;DHT22;13129;48.012;10.352;2022-11-20T17:50:47;3.70;99.90
25170;DHT22;13129;48.012;10.352;2022-11-20T17:53:13;3.70;99.90
25170;DHT22;13129;48.012;10.352;2022-11-20T17:55:38;3.70;99.90
25170;DHT22;13129;48.012;10.352;2022-11-20T17:58:26;3.70;99.90
25170;DHT22;13129;48.012;10.352;2022-11-20T18:00:52;3.70;99.90
25170;DHT22;13129;48.012;10.352;2022-11-20T18:03:17;3.70;99.90
25170;DHT22;13129;48.012;10.352;2022-11-20T18:05:43;3.60;99.90
25170;DHT22;13129;48.012;10.352;2022-11-20T18:08:09;3.60;99.90
25170;DHT22;13129;48.012;10.352;2022-11-20T18:10:34;3.50;99.90
25170;DHT22;13129;48.012;10.352;2022-11-20T18:13:00;3.40;99.90
25170;DHT22;13129;48.012;10.352;2022-11-20T18:15:26;3.40;99.90
25170;DHT22;13129;48.012;10.352;2022-11-20T18:17:51;3.40;99.90
25170;DHT22;13129;48.012;10.352;2022-11-20T18:20:17;3.40;99.90
25170;DHT22;13129;48.012;10.352;2022-11-20T18:22:43;3.40;99.90
25170;DHT22;13129;48.012;10.352;2022-11-20T18:25:09;3.40;99.90
25170;DHT22;13129;48.012;10.352;2022-11-20T18:27:34;3.40;99.90
25170;DHT22;13129;48.012;10.352;2022-11-20T18:30:00;3.40;99.90
25170;DHT22;13129;48.012;10.352;2022-11-20T18:32:26;3.40;99.90
25170;DHT22;13129;48.012;10.352;2022-11-20T18:34:51;3.50;99.90
25170;DHT22;13129;48.012;10.352;2022-11-20T18:37:17;3.50;99.90
25170;DHT22;13129;48.012;10.352;2022-11-20T18:39:43;3.50;99.90
25170;DHT22;13129;48.012;10.352;2022-11-20T18:42:13;3.50;99.90
25170;DHT22;13129;48.012;10.352;2022-11-20T18:44:58;3.50;99.90
25170;DHT22;13129;48.012;10.352;2022-11-20T18:47:29;3.50;99.90
25170;DHT22;13129;48.012;10.352;2022-11-20T18:49:58;3.50;99.90
25170;DHT22;13129;48.012;10.352;2022-11-20T18:52:32;3.50;99.90
25170;DHT22;13129;48.012;10.352;2022-11-20T18:54:59;3.60;99.90
25170;DHT22;13129;48.012;10.352;2022-11-20T18:57:27;3.50;99.90
25170;DHT22;13129;48.012;10.352;2022-11-20T18:59:54;3.50;99.90
25170;DHT22;13129;48.012;10.352;2022-11-20T19:02:21;3.50;99.90
25170;DHT22;13129;48.012;10.352;2022-11-20T19:04:47;3.40;99.90
25170;DHT22;13129;48.012;10.352;2022-11-20T19:07:14;3.40;99.90
25170;DHT22;13129;48.012;10.352;2022-11-20T19:09:41;3.40;99.90
25170;DHT22;13129;48.012;10.352;2022-11-20T19:12:08;3.40;99.90
25170;DHT22;13129;48.012;10.352;2022-11-20T19:14:34;3.40;99.90
25170;DHT22;13129;48.012;10.352;2022-11-20T19:17:01;3.40;99.90
25170;DHT22;13129;48.012;10.352;2022-11-20T19:19:27;3.40;99.90
25170;DHT22;13129;48.012;10.352;2022-11-20T19:21:54;3.40;99.90
25170;DHT22;13129;48.012;10.352;2022-11-20T19:24:20;3.40;99.90
25170;DHT22;13129;48.012;10.352;2022-11-20T19:26:47;3.40;99.90
25170;DHT22;13129;48.012;10.352;2022-11-20T19:29:14;3.40;99.90
25170;DHT22;13129;48.012;10.352;2022-11-20T19:31:41;3.40;99.90
25170;DHT22;13129;48.012;10.352;2022-11-20T19:34:08;3.30;99.90
25170;DHT22;13129;48.012;10.352;2022-11-20T19:36:36;3.30;99.90
25170;DHT22;13129;48.012;10.352;2022-11-20T19:39:04;3.30;99.90
25170;DHT22;13129;48.012;10.352;2022-11-20T19:41:32;3.20;99.90
25170;DHT22;13129;48.012;10.352;2022-11-20T19:44:01;3.20;99.90
25170;DHT22;13129;48.012;10.352;2022-11-20T19:46:28;3.30;99.90
25170;DHT22;13129;48.012;10.352;2022-11-20T19:48:54;3.20;99.90
25170;DHT22;13129;48.012;10.352;2022-11-20T19:51:25;3.20;99.90
25170;DHT22;13129;48.012;10.352;2022-11-20T19:53:53;3.30;99.90
25170;DHT22;13129;48.012;10.352;2022-11-20T19:56:19;3.30;99.90
25170;DHT22;13129;48.012;10.352;2022-11-20T19:58:44;3.30;99.90
25170;DHT22;13129;48.012;10.352;2022-11-20T20:01:18;3.40;99.90
25170;DHT22;13129;48.012;10.352;2022-11-20T20:03:45;3.50;99.90
25170;DHT22;13129;48.012;10.352;2022-11-20T20:06:14;3.60;99.90
25170;DHT22;13129;48.012;10.352;2022-11-20T20:08:40;3.60;99.90
25170;DHT22;13129;48.012;10.352;2022-11-20T20:11:15;3.70;99.90
25170;DHT22;13129;48.012;10.352;2022-11-20T20:13:41;3.80;99.90
25170;DHT22;13129;48.012;10.352;2022-11-20T20:16:12;3.80;99.90
25170;DHT22;13129;48.012;10.352;2022-11-20T20:18:38;3.90;99.90
25170;DHT22;13129;48.012;10.352;2022-11-20T20:21:11;4.00;99.90
25170;DHT22;13129;48.012;10.352;2022-11-20T20:23:38;4.00;99.90
25170;DHT22;13129;48.012;10.352;2022-11-20T20:26:05;4.10;99.90
25170;DHT22;13129;48.012;10.352;2022-11-20T20:28:32;4.20;99.90
25170;DHT22;13129;48.012;10.352;2022-11-20T20:31:14;4.20;99.90
25170;DHT22;13129;48.012;10.352;2022-11-20T20:33:40;4.30;99.90
25170;DHT22;13129;48.012;10.352;2022-11-20T20:36:08;4.30;99.90
25170;DHT22;13129;48.012;10.352;2022-11-20T20:38:34;4.30;99.90
25170;DHT22;13129;48.012;10.352;2022-11-20T20:41:00;4.30;99.90
25170;DHT22;13129;48.012;10.352;2022-11-20T20:43:26;4.20;99.90
25170;DHT22;13129;48.012;10.352;2022-11-20T20:45:53;4.20;99.90
25170;DHT22;13129;48.012;10.352;2022-11-20T20:48:21;4.20;99.90
25170;DHT22;13129;48.012;10.352;2022-11-20T20:50:58;4.10;99.90
25170;DHT22;13129;48.012;10.352;2022-11-20T20:53:24;4.10;99.90
25170;DHT22;13129;48.012;10.352;2022-11-20T20:55:57;4.10;99.90
25170;DHT22;13129;48.012;10.352;2022-11-20T20:58:23;4.10;99.90
25170;DHT22;13129;48.012;10.352;2022-11-20T21:00:49;4.10;99.90
25170;DHT22;13129;48.012;10.352;2022-11-20T21:03:15;4.10;99.90
25170;DHT22;13129;48.012;10.352;2022-11-20T21:05:42;4.10;99.90
25170;DHT22;13129;48.012;10.352;2022-11-20T21:08:07;4.10;99.90
25170;DHT22;13129;48.012;10.352;2022-11-20T21:10:54;4.00;99.90
25170;DHT22;13129;48.012;10.352;2022-11-20T21:13:22;4.00;99.90
25170;DHT22;13129;48.012;10.352;2022-11-20T21:15:49;3.90;99.90
25170;DHT22;13129;48.012;10.352;2022-11-20T21:18:17;3.90;99.90
25170;DHT22;13129;48.012;10.352;2022-11-20T21:20:43;3.80;99.90
25170;DHT22;13129;48.012;10.352;2022-11-20T21:23:28;3.80;99.90
25170;DHT22;13129;48.012;10.352;2022-11-20T21:25:54;3.80;99.90
25170;DHT22;13129;48.012;10.352;2022-11-20T21:28:21;3.80;99.90
25170;DHT22;13129;48.012;10.352;2022-11-20T21:30:47;3.70;99.90
25170;DHT22;13129;48.012;10.352;2022-11-20T21:33:13;3.70;99.90
25170;DHT22;13129;48.012;10.352;2022-11-20T21:35:39;3.60;99.90
25170;DHT22;13129;48.012;10.352;2022-11-20T21:38:05;3.50;99.90
25170;DHT22;13129;48.012;10.352;2022-11-20T21:40:31;3.50;99.90
25170;DHT22;13129;48.012;10.352;2022-11-20T21:42:57;3.40;99.90
25170;DHT22;13129;48.012;10.352;2022-11-20T21:45:22;3.40;99.90
25170;DHT22;13129;48.012;10.352;2022-11-20T21:47:48;3.40;99.90
25170;DHT22;13129;48.012;10.352;2022-11-20T21:50:16;3.30;99.90
25170;DHT22;13129;48.012;10.352;2022-11-20T21:52:42;3.30;99.90
25170;DHT22;13129;48.012;10.352;2022-11-20T21:55:07;3.30;99.90
25170;DHT22;13129;48.012;10.352;2022-11-20T21:57:34;3.30;99.90
25170;DHT22;13129;48.012;10.352;2022-11-20T22:00:00;3.30;99.90